Station Historical Data
Daily Summary for March 28, 2012 Units:  Both    English   Metric
« Previous Day
Next Day »
Daily Weekly Monthly Yearly Custom
  High: Low: Average:
Temperature: 81.2 °F /  27.3 °C 59.1 °F /  15.1 °C 69.3 °F /  20.7 °C
Dew Point: 63.3 °F /  17.4 °C 52.1 °F /  11.2 °C 56.4 °F /  13.6 °C
Humidity: 85% 42% 65%
Wind Speed: 13.0mph /  20.9km/h - 3.6mph /  5.8km/h
Wind Gust: 17.0mph /  27.4km/h - -
Wind- - SSW
Pressure: 30.10 in /  1019.2 hPa 29.94 in /  1013.8 hPa -
Precipitation: 0.00 in /  0 mm    
Historical Graphs
 
 
Tabular Data for March 28, 2012
Time Temperature Dew Point Pressure Wind Wind Speed Wind Gust Humidity Rainfall Rate (Hourly) Conditions
00:00 66.5 °F /  19.2 °C 52.7 °F /  11.5 °C 30.06in /  1017.8hPa SSE 3.0mph /  4.8km/h 4.0mph /  6.4km/h 61% 0.00in /  0mm
00:05 66.5 °F /  19.2 °C 53.1 °F /  11.7 °C 30.06in /  1017.8hPa South 2.0mph /  3.2km/h 3.0mph /  4.8km/h 62% 0.00in /  0mm
00:10 66.5 °F /  19.2 °C 53.1 °F /  11.7 °C 30.06in /  1017.8hPa SSE 2.0mph /  3.2km/h 3.0mph /  4.8km/h 62% 0.00in /  0mm
00:15 66.3 °F /  19.1 °C 52.9 °F /  11.6 °C 30.05in /  1017.5hPa SSE 3.0mph /  4.8km/h 4.0mph /  6.4km/h 62% 0.00in /  0mm
00:20 66.0 °F /  18.9 °C 53.1 °F /  11.7 °C 30.05in /  1017.5hPa SSE 2.0mph /  3.2km/h 2.0mph /  3.2km/h 63% 0.00in /  0mm
00:25 65.8 °F /  18.8 °C 52.9 °F /  11.6 °C 30.05in /  1017.5hPa SSE 2.0mph /  3.2km/h 2.0mph /  3.2km/h 63% 0.00in /  0mm
00:30 65.4 °F /  18.6 °C 52.9 °F /  11.6 °C 30.05in /  1017.5hPa SE 2.0mph /  3.2km/h 2.0mph /  3.2km/h 64% 0.00in /  0mm
00:35 65.4 °F /  18.6 °C 52.9 °F /  11.6 °C 30.05in /  1017.5hPa SSE 1.0mph /  1.6km/h 2.0mph /  3.2km/h 64% 0.00in /  0mm
00:40 65.2 °F /  18.4 °C 52.7 °F /  11.5 °C 30.05in /  1017.5hPa SE 1.0mph /  1.6km/h 1.0mph /  1.6km/h 64% 0.00in /  0mm
00:46 65.1 °F /  18.4 °C 52.6 °F /  11.4 °C 30.05in /  1017.5hPa SE 1.0mph /  1.6km/h 1.0mph /  1.6km/h 64% 0.00in /  0mm
00:51 64.9 °F /  18.3 °C 52.9 °F /  11.6 °C 30.05in /  1017.5hPa SE 1.0mph /  1.6km/h 1.0mph /  1.6km/h 65% 0.00in /  0mm
00:56 64.5 °F /  18.1 °C 52.9 °F /  11.6 °C 30.05in /  1017.5hPa SE 1.0mph /  1.6km/h 2.0mph /  3.2km/h 66% 0.00in /  0mm
01:01 64.1 °F /  17.8 °C 52.9 °F /  11.6 °C 30.05in /  1017.5hPa SE 2.0mph /  3.2km/h 3.0mph /  4.8km/h 67% 0.00in /  0mm
01:06 64.3 °F /  17.9 °C 53.1 °F /  11.7 °C 30.05in /  1017.5hPa SE 2.0mph /  3.2km/h 4.0mph /  6.4km/h 67% 0.00in /  0mm
01:11 64.6 °F /  18.1 °C 53.0 °F /  11.7 °C 30.05in /  1017.5hPa SE 2.0mph /  3.2km/h 3.0mph /  4.8km/h 66% 0.00in /  0mm
01:16 64.7 °F /  18.2 °C 52.7 °F /  11.5 °C 30.05in /  1017.5hPa ESE 2.0mph /  3.2km/h 3.0mph /  4.8km/h 65% 0.00in /  0mm
01:21 64.5 °F /  18.1 °C 52.9 °F /  11.6 °C 30.05in /  1017.5hPa SE 1.0mph /  1.6km/h 3.0mph /  4.8km/h 66% 0.00in /  0mm
01:26 64.1 °F /  17.8 °C 52.5 °F /  11.4 °C 30.05in /  1017.5hPa SE 3.0mph /  4.8km/h 3.0mph /  4.8km/h 66% 0.00in /  0mm
01:31 64.3 °F /  17.9 °C 52.7 °F /  11.5 °C 30.05in /  1017.5hPa ESE 3.0mph /  4.8km/h 4.0mph /  6.4km/h 66% 0.00in /  0mm
01:36 64.3 °F /  17.9 °C 52.7 °F /  11.5 °C 30.05in /  1017.5hPa ESE 3.0mph /  4.8km/h 3.0mph /  4.8km/h 66% 0.00in /  0mm
01:41 64.4 °F /  18 °C 52.4 °F /  11.3 °C 30.04in /  1017.2hPa SE 2.0mph /  3.2km/h 3.0mph /  4.8km/h 65% 0.00in /  0mm
01:47 64.3 °F /  17.9 °C 52.7 °F /  11.5 °C 30.04in /  1017.2hPa SE 1.0mph /  1.6km/h 4.0mph /  6.4km/h 66% 0.00in /  0mm
01:52 64.0 °F /  17.8 °C 52.4 °F /  11.3 °C 30.04in /  1017.2hPa SE 2.0mph /  3.2km/h 3.0mph /  4.8km/h 66% 0.00in /  0mm
01:57 63.9 °F /  17.7 °C 52.7 °F /  11.5 °C 30.04in /  1017.2hPa SE 1.0mph /  1.6km/h 3.0mph /  4.8km/h 67% 0.00in /  0mm
02:02 63.5 °F /  17.5 °C 52.4 °F /  11.3 °C 30.04in /  1017.2hPa SE 1.0mph /  1.6km/h 2.0mph /  3.2km/h 67% 0.00in /  0mm
02:07 63.4 °F /  17.4 °C 52.7 °F /  11.5 °C 30.04in /  1017.2hPa Calm   3.0mph /  4.8km/h 68% 0.00in /  0mm
02:12 63.0 °F /  17.2 °C 52.3 °F /  11.3 °C 30.04in /  1017.2hPa SE 1.0mph /  1.6km/h 1.0mph /  1.6km/h 68% 0.00in /  0mm
02:17 62.8 °F /  17.1 °C 52.5 °F /  11.4 °C 30.04in /  1017.2hPa SE 1.0mph /  1.6km/h 2.0mph /  3.2km/h 69% 0.00in /  0mm
02:22 62.4 °F /  16.9 °C 52.5 °F /  11.4 °C 30.04in /  1017.2hPa ESE 2.0mph /  3.2km/h 2.0mph /  3.2km/h 70% 0.00in /  0mm
02:27 62.4 °F /  16.9 °C 52.5 °F /  11.4 °C 30.04in /  1017.2hPa SE 2.0mph /  3.2km/h 3.0mph /  4.8km/h 70% 0.00in /  0mm
02:32 62.6 °F /  17 °C 52.3 °F /  11.3 °C 30.05in /  1017.5hPa SE 2.0mph /  3.2km/h 3.0mph /  4.8km/h 69% 0.00in /  0mm
02:37 62.4 °F /  16.9 °C 52.5 °F /  11.4 °C 30.05in /  1017.5hPa SE 1.0mph /  1.6km/h 1.0mph /  1.6km/h 70% 0.00in /  0mm
02:42 62.2 °F /  16.8 °C 52.3 °F /  11.3 °C 30.05in /  1017.5hPa SE 1.0mph /  1.6km/h 1.0mph /  1.6km/h 70% 0.00in /  0mm
02:47 61.9 °F /  16.6 °C 52.4 °F /  11.3 °C 30.05in /  1017.5hPa SSE 1.0mph /  1.6km/h 1.0mph /  1.6km/h 71% 0.00in /  0mm
02:52 61.7 °F /  16.5 °C 52.2 °F /  11.2 °C 30.05in /  1017.5hPa SSE 1.0mph /  1.6km/h 1.0mph /  1.6km/h 71% 0.00in /  0mm
02:57 61.6 °F /  16.4 °C 52.1 °F /  11.2 °C 30.04in /  1017.2hPa SSE 1.0mph /  1.6km/h 1.0mph /  1.6km/h 71% 0.00in /  0mm
03:02 61.5 °F /  16.4 °C 52.4 °F /  11.3 °C 30.04in /  1017.2hPa SE 1.0mph /  1.6km/h 1.0mph /  1.6km/h 72% 0.00in /  0mm
03:07 61.6 °F /  16.4 °C 52.5 °F /  11.4 °C 30.04in /  1017.2hPa SE 1.0mph /  1.6km/h 1.0mph /  1.6km/h 72% 0.00in /  0mm
03:12 61.5 °F /  16.4 °C 52.4 °F /  11.3 °C 30.04in /  1017.2hPa South 1.0mph /  1.6km/h 2.0mph /  3.2km/h 72% 0.00in /  0mm
03:17 61.7 °F /  16.5 °C 52.6 °F /  11.4 °C 30.05in /  1017.5hPa Calm   2.0mph /  3.2km/h 72% 0.00in /  0mm
03:22 61.8 °F /  16.6 °C 52.3 °F /  11.3 °C 30.04in /  1017.2hPa South 1.0mph /  1.6km/h 1.0mph /  1.6km/h 71% 0.00in /  0mm
03:27 62.2 °F /  16.8 °C 52.7 °F /  11.5 °C 30.04in /  1017.2hPa SE 1.0mph /  1.6km/h 2.0mph /  3.2km/h 71% 0.00in /  0mm
03:32 62.2 °F /  16.8 °C 52.7 °F /  11.5 °C 30.04in /  1017.2hPa SSE 1.0mph /  1.6km/h 2.0mph /  3.2km/h 71% 0.00in /  0mm
03:37 62.1 °F /  16.7 °C 52.6 °F /  11.4 °C 30.04in /  1017.2hPa SSE 1.0mph /  1.6km/h 2.0mph /  3.2km/h 71% 0.00in /  0mm
03:42 62.2 °F /  16.8 °C 52.7 °F /  11.5 °C 30.04in /  1017.2hPa SSE 2.0mph /  3.2km/h 2.0mph /  3.2km/h 71% 0.00in /  0mm
03:47 62.2 °F /  16.8 °C 52.7 °F /  11.5 °C 30.04in /  1017.2hPa SE 2.0mph /  3.2km/h 2.0mph /  3.2km/h 71% 0.00in /  0mm
03:52 62.2 °F /  16.8 °C 52.7 °F /  11.5 °C 30.04in /  1017.2hPa SSE 1.0mph /  1.6km/h 2.0mph /  3.2km/h 71% 0.00in /  0mm
03:57 62.1 °F /  16.7 °C 52.6 °F /  11.4 °C 30.04in /  1017.2hPa SSE 1.0mph /  1.6km/h 1.0mph /  1.6km/h 71% 0.00in /  0mm
04:02 62.0 °F /  16.7 °C 52.9 °F /  11.6 °C 30.03in /  1016.8hPa SSE 1.0mph /  1.6km/h 1.0mph /  1.6km/h 72% 0.00in /  0mm
04:08 61.8 °F /  16.6 °C 52.7 °F /  11.5 °C 30.03in /  1016.8hPa SSE 1.0mph /  1.6km/h 1.0mph /  1.6km/h 72% 0.00in /  0mm
04:13 61.6 °F /  16.4 °C 52.9 °F /  11.6 °C 30.03in /  1016.8hPa SSE 1.0mph /  1.6km/h 2.0mph /  3.2km/h 73% 0.00in /  0mm
04:18 61.5 °F /  16.4 °C 52.8 °F /  11.6 °C 30.03in /  1016.8hPa Calm   2.0mph /  3.2km/h 73% 0.00in /  0mm
04:23 61.3 °F /  16.3 °C 52.6 °F /  11.4 °C 30.03in /  1016.8hPa SSE 1.0mph /  1.6km/h 2.0mph /  3.2km/h 73% 0.00in /  0mm
04:28 61.1 °F /  16.2 °C 52.8 °F /  11.6 °C 30.03in /  1016.8hPa SSE 1.0mph /  1.6km/h 2.0mph /  3.2km/h 74% 0.00in /  0mm
04:33 61.0 °F /  16.1 °C 52.7 °F /  11.5 °C 30.03in /  1016.8hPa SSE 1.0mph /  1.6km/h 2.0mph /  3.2km/h 74% 0.00in /  0mm
04:38 61.0 °F /  16.1 °C 52.7 °F /  11.5 °C 30.04in /  1017.2hPa SE 2.0mph /  3.2km/h 2.0mph /  3.2km/h 74% 0.00in /  0mm
04:43 60.8 °F /  16 °C 52.5 °F /  11.4 °C 30.03in /  1016.8hPa SSE 1.0mph /  1.6km/h 2.0mph /  3.2km/h 74% 0.00in /  0mm
04:48 60.8 °F /  16 °C 52.5 °F /  11.4 °C 30.04in /  1017.2hPa SSE 1.0mph /  1.6km/h 2.0mph /  3.2km/h 74% 0.00in /  0mm
04:53 60.8 °F /  16 °C 52.5 °F /  11.4 °C 30.04in /  1017.2hPa SE 1.0mph /  1.6km/h 2.0mph /  3.2km/h 74% 0.00in /  0mm
04:58 60.4 °F /  15.8 °C 52.5 °F /  11.4 °C 30.04in /  1017.2hPa Calm   1.0mph /  1.6km/h 75% 0.00in /  0mm
05:03 60.1 °F /  15.6 °C 52.5 °F /  11.4 °C 30.04in /  1017.2hPa SSE 1.0mph /  1.6km/h 2.0mph /  3.2km/h 76% 0.00in /  0mm
05:08 60.1 °F /  15.6 °C 52.5 °F /  11.4 °C 30.04in /  1017.2hPa SSE 1.0mph /  1.6km/h 1.0mph /  1.6km/h 76% 0.00in /  0mm
05:13 60.2 °F /  15.7 °C 52.6 °F /  11.4 °C 30.04in /  1017.2hPa SSE 1.0mph /  1.6km/h 1.0mph /  1.6km/h 76% 0.00in /  0mm
05:18 60.1 °F /  15.6 °C 52.5 °F /  11.4 °C 30.04in /  1017.2hPa South 2.0mph /  3.2km/h 2.0mph /  3.2km/h 76% 0.00in /  0mm
05:23 59.8 °F /  15.4 °C 52.2 °F /  11.2 °C 30.04in /  1017.2hPa SE 2.0mph /  3.2km/h 2.0mph /  3.2km/h 76% 0.00in /  0mm
05:28 59.3 °F /  15.2 °C 52.5 °F /  11.4 °C 30.04in /  1017.2hPa SSE 1.0mph /  1.6km/h 3.0mph /  4.8km/h 78% 0.00in /  0mm
05:33 59.4 °F /  15.2 °C 52.5 °F /  11.4 °C 30.04in /  1017.2hPa SSE 3.0mph /  4.8km/h 3.0mph /  4.8km/h 78% 0.00in /  0mm
05:38 59.7 °F /  15.4 °C 52.5 °F /  11.4 °C 30.04in /  1017.2hPa SSE 2.0mph /  3.2km/h 3.0mph /  4.8km/h 77% 0.00in /  0mm
05:43 59.9 °F /  15.5 °C 52.7 °F /  11.5 °C 30.05in /  1017.5hPa SSE 3.0mph /  4.8km/h 3.0mph /  4.8km/h 77% 0.00in /  0mm
05:48 59.8 °F /  15.4 °C 52.6 °F /  11.4 °C 30.05in /  1017.5hPa SSE 1.0mph /  1.6km/h 2.0mph /  3.2km/h 77% 0.00in /  0mm
05:53 59.6 °F /  15.3 °C 52.4 °F /  11.3 °C 30.05in /  1017.5hPa South 2.0mph /  3.2km/h 2.0mph /  3.2km/h 77% 0.00in /  0mm
05:59 59.8 °F /  15.4 °C 52.6 °F /  11.4 °C 30.05in /  1017.5hPa SSE 2.0mph /  3.2km/h 2.0mph /  3.2km/h 77% 0.00in /  0mm
06:04 59.6 °F /  15.3 °C 52.7 °F /  11.5 °C 30.05in /  1017.5hPa SSE 2.0mph /  3.2km/h 3.0mph /  4.8km/h 78% 0.00in /  0mm
06:09 59.3 °F /  15.2 °C 52.8 °F /  11.6 °C 30.05in /  1017.5hPa SSE 2.0mph /  3.2km/h 3.0mph /  4.8km/h 79% 0.00in /  0mm
06:14 59.2 °F /  15.1 °C 52.7 °F /  11.5 °C 30.05in /  1017.5hPa SSE 2.0mph /  3.2km/h 2.0mph /  3.2km/h 79% 0.00in /  0mm
06:19 59.1 °F /  15.1 °C 52.6 °F /  11.4 °C 30.05in /  1017.5hPa SSE 2.0mph /  3.2km/h 2.0mph /  3.2km/h 79% 0.00in /  0mm
06:24 59.2 °F /  15.1 °C 52.7 °F /  11.5 °C 30.05in /  1017.5hPa SSW 2.0mph /  3.2km/h 3.0mph /  4.8km/h 79% 0.00in /  0mm
06:29 59.3 °F /  15.2 °C 52.8 °F /  11.6 °C 30.05in /  1017.5hPa SE 3.0mph /  4.8km/h 4.0mph /  6.4km/h 79% 0.00in /  0mm
06:34 59.5 °F /  15.3 °C 53.0 °F /  11.7 °C 30.06in /  1017.8hPa SSE 4.0mph /  6.4km/h 5.0mph /  8km/h 79% 0.00in /  0mm
06:39 59.8 °F /  15.4 °C 52.9 °F /  11.6 °C 30.06in /  1017.8hPa SSE 1.0mph /  1.6km/h 3.0mph /  4.8km/h 78% 0.00in /  0mm
06:44 59.8 °F /  15.4 °C 52.9 °F /  11.6 °C 30.06in /  1017.8hPa South 3.0mph /  4.8km/h 3.0mph /  4.8km/h 78% 0.00in /  0mm
06:49 60.0 °F /  15.6 °C 53.1 °F /  11.7 °C 30.06in /  1017.8hPa South 4.0mph /  6.4km/h 4.0mph /  6.4km/h 78% 0.00in /  0mm
06:54 60.4 °F /  15.8 °C 53.5 °F /  11.9 °C 30.06in /  1017.8hPa SSE 3.0mph /  4.8km/h 5.0mph /  8km/h 78% 0.00in /  0mm
06:59 60.6 °F /  15.9 °C 53.7 °F /  12.1 °C 30.06in /  1017.8hPa SSW 4.0mph /  6.4km/h 4.0mph /  6.4km/h 78% 0.00in /  0mm
07:04 60.7 °F /  15.9 °C 53.8 °F /  12.1 °C 30.06in /  1017.8hPa South 3.0mph /  4.8km/h 6.0mph /  9.7km/h 78% 0.00in /  0mm
07:09 60.9 °F /  16.1 °C 54.0 °F /  12.2 °C 30.06in /  1017.8hPa SSW 2.0mph /  3.2km/h 6.0mph /  9.7km/h 78% 0.00in /  0mm
07:14 60.9 °F /  16.1 °C 54.0 °F /  12.2 °C 30.06in /  1017.8hPa SW 4.0mph /  6.4km/h 5.0mph /  8km/h 78% 0.00in /  0mm
07:19 60.7 °F /  15.9 °C 54.2 °F /  12.3 °C 30.06in /  1017.8hPa SSE 4.0mph /  6.4km/h 4.0mph /  6.4km/h 79% 0.00in /  0mm
07:24 60.5 °F /  15.8 °C 54.0 °F /  12.2 °C 30.06in /  1017.8hPa SSW 4.0mph /  6.4km/h 5.0mph /  8km/h 79% 0.00in /  0mm
07:29 60.2 °F /  15.7 °C 54.4 °F /  12.4 °C 30.07in /  1018.2hPa SSW 3.0mph /  4.8km/h 4.0mph /  6.4km/h 81% 0.00in /  0mm
07:34 60.0 °F /  15.6 °C 54.2 °F /  12.3 °C 30.07in /  1018.2hPa SSW 2.0mph /  3.2km/h 3.0mph /  4.8km/h 81% 0.00in /  0mm
07:39 60.0 °F /  15.6 °C 54.2 °F /  12.3 °C 30.07in /  1018.2hPa SW 4.0mph /  6.4km/h 5.0mph /  8km/h 81% 0.00in /  0mm
07:44 59.8 °F /  15.4 °C 54.0 °F /  12.2 °C 30.07in /  1018.2hPa SW 4.0mph /  6.4km/h 4.0mph /  6.4km/h 81% 0.00in /  0mm
07:50 59.5 °F /  15.3 °C 54.0 °F /  12.2 °C 30.07in /  1018.2hPa SSW 3.0mph /  4.8km/h 3.0mph /  4.8km/h 82% 0.00in /  0mm
07:55 59.4 °F /  15.2 °C 54.2 °F /  12.3 °C 30.08in /  1018.5hPa SW 3.0mph /  4.8km/h 4.0mph /  6.4km/h 83% 0.00in /  0mm
08:00 59.7 °F /  15.4 °C 54.2 °F /  12.3 °C 30.08in /  1018.5hPa WSW 2.0mph /  3.2km/h 4.0mph /  6.4km/h 82% 0.00in /  0mm
08:05 59.7 °F /  15.4 °C 54.2 °F /  12.3 °C 30.08in /  1018.5hPa SW 2.0mph /  3.2km/h 3.0mph /  4.8km/h 82% 0.00in /  0mm
08:10 59.5 °F /  15.3 °C 54.3 °F /  12.4 °C 30.08in /  1018.5hPa SSW 2.0mph /  3.2km/h 3.0mph /  4.8km/h 83% 0.00in /  0mm
08:15 59.3 °F /  15.2 °C 54.2 °F /  12.3 °C 30.08in /  1018.5hPa SW 3.0mph /  4.8km/h 3.0mph /  4.8km/h 83% 0.00in /  0mm
08:20 59.3 °F /  15.2 °C 54.5 °F /  12.5 °C 30.09in /  1018.8hPa SSW 3.0mph /  4.8km/h 3.0mph /  4.8km/h 84% 0.00in /  0mm
08:25 59.7 °F /  15.4 °C 54.9 °F /  12.7 °C 30.09in /  1018.8hPa SW 2.0mph /  3.2km/h 6.0mph /  9.7km/h 84% 0.00in /  0mm
08:30 59.7 °F /  15.4 °C 54.9 °F /  12.7 °C 30.09in /  1018.8hPa SW 3.0mph /  4.8km/h 3.0mph /  4.8km/h 84% 0.00in /  0mm
08:35 59.8 °F /  15.4 °C 55.3 °F /  12.9 °C 30.09in /  1018.8hPa SSW 2.0mph /  3.2km/h 3.0mph /  4.8km/h 85% 0.00in /  0mm
08:36 59.8 °F /  15.4 °C 55.0 °F /  12.8 °C 30.09in /  1018.8hPa SW 1.0mph /  1.6km/h 3.0mph /  4.8km/h 84% 0.00in /  0mm
08:41 60.0 °F /  15.6 °C 55.5 °F /  13.1 °C 30.09in /  1018.8hPa WSW 2.0mph /  3.2km/h 3.0mph /  4.8km/h 85% 0.00in /  0mm
08:46 60.4 °F /  15.8 °C 55.5 °F /  13.1 °C 30.10in /  1019.2hPa SSW 1.0mph /  1.6km/h 4.0mph /  6.4km/h 84% 0.00in /  0mm
08:51 60.8 °F /  16 °C 55.9 °F /  13.3 °C 30.10in /  1019.2hPa SW 2.0mph /  3.2km/h 3.0mph /  4.8km/h 84% 0.00in /  0mm
08:56 61.3 °F /  16.3 °C 56.4 °F /  13.6 °C 30.10in /  1019.2hPa SW 2.0mph /  3.2km/h 3.0mph /  4.8km/h 84% 0.00in /  0mm
09:01 62.0 °F /  16.7 °C 57.1 °F /  13.9 °C 30.10in /  1019.2hPa SW 2.0mph /  3.2km/h 4.0mph /  6.4km/h 84% 0.00in /  0mm
09:06 62.8 °F /  17.1 °C 57.6 °F /  14.2 °C 30.10in /  1019.2hPa SSW 5.0mph /  8km/h 5.0mph /  8km/h 83% 0.00in /  0mm
09:11 63.2 °F /  17.3 °C 57.6 °F /  14.2 °C 30.10in /  1019.2hPa SW 2.0mph /  3.2km/h 7.0mph /  11.3km/h 82% 0.00in /  0mm
09:16 63.5 °F /  17.5 °C 57.9 °F /  14.4 °C 30.10in /  1019.2hPa SSW 3.0mph /  4.8km/h 6.0mph /  9.7km/h 82% 0.00in /  0mm
09:21 64.0 °F /  17.8 °C 58.1 °F /  14.5 °C 30.10in /  1019.2hPa SW 7.0mph /  11.3km/h 8.0mph /  12.9km/h 81% 0.00in /  0mm
09:26 64.1 °F /  17.8 °C 57.8 °F /  14.3 °C 30.10in /  1019.2hPa South 4.0mph /  6.4km/h 8.0mph /  12.9km/h 80% 0.00in /  0mm
09:31 64.1 °F /  17.8 °C 58.2 °F /  14.6 °C 30.10in /  1019.2hPa SW 8.0mph /  12.9km/h 8.0mph /  12.9km/h 81% 0.00in /  0mm
09:36 64.2 °F /  17.9 °C 58.3 °F /  14.6 °C 30.10in /  1019.2hPa SW 1.0mph /  1.6km/h 5.0mph /  8km/h 81% 0.00in /  0mm
09:41 64.3 °F /  17.9 °C 58.7 °F /  14.8 °C 30.10in /  1019.2hPa SSW 3.0mph /  4.8km/h 7.0mph /  11.3km/h 82% 0.00in /  0mm
09:46 64.5 °F /  18.1 °C 58.5 °F /  14.7 °C 30.10in /  1019.2hPa SSW 3.0mph /  4.8km/h 6.0mph /  9.7km/h 81% 0.00in /  0mm
09:51 64.8 °F /  18.2 °C 59.2 °F /  15.1 °C 30.10in /  1019.2hPa SW 2.0mph /  3.2km/h 8.0mph /  12.9km/h 82% 0.00in /  0mm
09:56 65.6 °F /  18.7 °C 59.6 °F /  15.3 °C 30.10in /  1019.2hPa South 3.0mph /  4.8km/h 6.0mph /  9.7km/h 81% 0.00in /  0mm
10:01 65.8 °F /  18.8 °C 59.1 °F /  15.1 °C 30.10in /  1019.2hPa SSW 5.0mph /  8km/h 9.0mph /  14.5km/h 79% 0.00in /  0mm
10:07 65.5 °F /  18.6 °C 59.2 °F /  15.1 °C 30.10in /  1019.2hPa SSW 4.0mph /  6.4km/h 11.0mph /  17.7km/h 80% 0.00in /  0mm
10:12 65.8 °F /  18.8 °C 59.5 °F /  15.3 °C 30.10in /  1019.2hPa SSW 3.0mph /  4.8km/h 6.0mph /  9.7km/h 80% 0.00in /  0mm
10:17 66.2 °F /  19 °C 60.2 °F /  15.7 °C 30.10in /  1019.2hPa SW 6.0mph /  9.7km/h 7.0mph /  11.3km/h 81% 0.00in /  0mm
10:22 66.7 °F /  19.3 °C 60.3 °F /  15.7 °C 30.10in /  1019.2hPa SSW 5.0mph /  8km/h 6.0mph /  9.7km/h 80% 0.00in /  0mm
10:27 66.5 °F /  19.2 °C 60.2 °F /  15.7 °C 30.10in /  1019.2hPa SW 4.0mph /  6.4km/h 8.0mph /  12.9km/h 80% 0.00in /  0mm
10:32 66.9 °F /  19.4 °C 60.5 °F /  15.8 °C 30.09in /  1018.8hPa WSW 5.0mph /  8km/h 7.0mph /  11.3km/h 80% 0.00in /  0mm
10:37 67.0 °F /  19.4 °C 60.6 °F /  15.9 °C 30.09in /  1018.8hPa SSE 4.0mph /  6.4km/h 6.0mph /  9.7km/h 80% 0.00in /  0mm
10:42 67.3 °F /  19.6 °C 60.9 °F /  16.1 °C 30.10in /  1019.2hPa SSE 4.0mph /  6.4km/h 8.0mph /  12.9km/h 80% 0.00in /  0mm
10:47 68.3 °F /  20.2 °C 61.2 °F /  16.2 °C 30.10in /  1019.2hPa SSW 5.0mph /  8km/h 5.0mph /  8km/h 78% 0.00in /  0mm
10:52 69.1 °F /  20.6 °C 61.2 °F /  16.2 °C 30.10in /  1019.2hPa WSW 3.0mph /  4.8km/h 6.0mph /  9.7km/h 76% 0.00in /  0mm
10:57 69.7 °F /  20.9 °C 61.8 °F /  16.6 °C 30.10in /  1019.2hPa SW 6.0mph /  9.7km/h 8.0mph /  12.9km/h 76% 0.00in /  0mm
11:02 69.8 °F /  21 °C 61.5 °F /  16.4 °C 30.09in /  1018.8hPa WSW 4.0mph /  6.4km/h 10.0mph /  16.1km/h 75% 0.00in /  0mm
11:07 70.5 °F /  21.4 °C 61.8 °F /  16.6 °C 30.09in /  1018.8hPa WSW 6.0mph /  9.7km/h 9.0mph /  14.5km/h 74% 0.00in /  0mm
11:12 71.2 °F /  21.8 °C 62.1 °F /  16.7 °C 30.09in /  1018.8hPa SSW 6.0mph /  9.7km/h 7.0mph /  11.3km/h 73% 0.00in /  0mm
11:17 71.9 °F /  22.2 °C 62.4 °F /  16.9 °C 30.09in /  1018.8hPa SSW 7.0mph /  11.3km/h 8.0mph /  12.9km/h 72% 0.00in /  0mm
11:22 72.2 °F /  22.3 °C 62.3 °F /  16.8 °C 30.09in /  1018.8hPa SW 11.0mph /  17.7km/h 11.0mph /  17.7km/h 71% 0.00in /  0mm
11:27 71.8 °F /  22.1 °C 61.5 °F /  16.4 °C 30.09in /  1018.8hPa SW 6.0mph /  9.7km/h 10.0mph /  16.1km/h 70% 0.00in /  0mm
11:32 71.7 °F /  22.1 °C 61.4 °F /  16.3 °C 30.09in /  1018.8hPa WSW 9.0mph /  14.5km/h 10.0mph /  16.1km/h 70% 0.00in /  0mm
11:37 71.8 °F /  22.1 °C 61.5 °F /  16.4 °C 30.09in /  1018.8hPa SW 8.0mph /  12.9km/h 10.0mph /  16.1km/h 70% 0.00in /  0mm
11:42 72.7 °F /  22.6 °C 62.4 °F /  16.9 °C 30.09in /  1018.8hPa SW 3.0mph /  4.8km/h 10.0mph /  16.1km/h 70% 0.00in /  0mm
11:47 73.4 °F /  23 °C 62.2 °F /  16.8 °C 30.09in /  1018.8hPa SSW 6.0mph /  9.7km/h 8.0mph /  12.9km/h 68% 0.00in /  0mm
11:52 73.9 °F /  23.3 °C 61.4 °F /  16.3 °C 30.09in /  1018.8hPa SW 9.0mph /  14.5km/h 12.0mph /  19.3km/h 65% 0.00in /  0mm
11:57 73.7 °F /  23.2 °C 61.7 °F /  16.5 °C 30.09in /  1018.8hPa SSW 5.0mph /  8km/h 8.0mph /  12.9km/h 66% 0.00in /  0mm
12:02 73.9 °F /  23.3 °C 61.8 °F /  16.6 °C 30.09in /  1018.8hPa WSW 7.0mph /  11.3km/h 9.0mph /  14.5km/h 66% 0.00in /  0mm
12:07 74.4 °F /  23.6 °C 62.3 °F /  16.8 °C 30.09in /  1018.8hPa WSW 7.0mph /  11.3km/h 9.0mph /  14.5km/h 66% 0.00in /  0mm
12:12 74.1 °F /  23.4 °C 62.0 °F /  16.7 °C 30.08in /  1018.5hPa West 3.0mph /  4.8km/h 7.0mph /  11.3km/h 66% 0.00in /  0mm
12:17 73.8 °F /  23.2 °C 62.2 °F /  16.8 °C 30.09in /  1018.8hPa West 3.0mph /  4.8km/h 7.0mph /  11.3km/h 67% 0.00in /  0mm
12:23 74.4 °F /  23.6 °C 62.3 °F /  16.8 °C 30.08in /  1018.5hPa West 7.0mph /  11.3km/h 8.0mph /  12.9km/h 66% 0.00in /  0mm
12:28 74.8 °F /  23.8 °C 62.7 °F /  17.1 °C 30.08in /  1018.5hPa West 5.0mph /  8km/h 12.0mph /  19.3km/h 66% 0.00in /  0mm
12:33 74.9 °F /  23.8 °C 61.9 °F /  16.6 °C 30.08in /  1018.5hPa West 8.0mph /  12.9km/h 8.0mph /  12.9km/h 64% 0.00in /  0mm
12:38 75.1 °F /  23.9 °C 62.1 °F /  16.7 °C 30.08in /  1018.5hPa SW 4.0mph /  6.4km/h 8.0mph /  12.9km/h 64% 0.00in /  0mm
12:43 75.7 °F /  24.3 °C 62.7 °F /  17.1 °C 30.08in /  1018.5hPa WNW 7.0mph /  11.3km/h 7.0mph /  11.3km/h 64% 0.00in /  0mm
12:48 75.9 °F /  24.4 °C 62.4 °F /  16.9 °C 30.07in /  1018.2hPa WSW 10.0mph /  16.1km/h 10.0mph /  16.1km/h 63% 0.00in /  0mm
12:53 76.0 °F /  24.4 °C 62.0 °F /  16.7 °C 30.08in /  1018.5hPa SW 10.0mph /  16.1km/h 14.0mph /  22.5km/h 62% 0.00in /  0mm
12:58 76.4 °F /  24.7 °C 62.0 °F /  16.7 °C 30.07in /  1018.2hPa West 4.0mph /  6.4km/h 9.0mph /  14.5km/h 61% 0.00in /  0mm
13:03 76.7 °F /  24.8 °C 62.7 °F /  17.1 °C 30.07in /  1018.2hPa WSW 8.0mph /  12.9km/h 11.0mph /  17.7km/h 62% 0.00in /  0mm
13:08 77.0 °F /  25 °C 62.5 °F /  16.9 °C 30.07in /  1018.2hPa WSW 12.0mph /  19.3km/h 12.0mph /  19.3km/h 61% 0.00in /  0mm
13:13 77.1 °F /  25.1 °C 63.1 °F /  17.3 °C 30.06in /  1017.8hPa South 4.0mph /  6.4km/h 10.0mph /  16.1km/h 62% 0.00in /  0mm
13:18 77.5 °F /  25.3 °C 63.0 °F /  17.2 °C 30.06in /  1017.8hPa SW 5.0mph /  8km/h 7.0mph /  11.3km/h 61% 0.00in /  0mm
13:23 77.1 °F /  25.1 °C 63.1 °F /  17.3 °C 30.06in /  1017.8hPa SSW 4.0mph /  6.4km/h 10.0mph /  16.1km/h 62% 0.00in /  0mm
13:28 77.1 °F /  25.1 °C 62.6 °F /  17 °C 30.06in /  1017.8hPa SW 7.0mph /  11.3km/h 7.0mph /  11.3km/h 61% 0.00in /  0mm
13:33 77.2 °F /  25.1 °C 61.3 °F /  16.3 °C 30.06in /  1017.8hPa WSW 3.0mph /  4.8km/h 9.0mph /  14.5km/h 58% 0.00in /  0mm
13:38 77.1 °F /  25.1 °C 62.6 °F /  17 °C 30.05in /  1017.5hPa South 6.0mph /  9.7km/h 10.0mph /  16.1km/h 61% 0.00in /  0mm
13:43 77.8 °F /  25.4 °C 61.4 °F /  16.3 °C 30.05in /  1017.5hPa WNW 5.0mph /  8km/h 8.0mph /  12.9km/h 57% 0.00in /  0mm
13:48 78.3 °F /  25.7 °C 63.3 °F /  17.4 °C 30.05in /  1017.5hPa SSW 7.0mph /  11.3km/h 9.0mph /  14.5km/h 60% 0.00in /  0mm
13:53 78.1 °F /  25.6 °C 61.6 °F /  16.4 °C 30.05in /  1017.5hPa West 8.0mph /  12.9km/h 12.0mph /  19.3km/h 57% 0.00in /  0mm
13:58 78.4 °F /  25.8 °C 62.4 °F /  16.9 °C 30.05in /  1017.5hPa SW 8.0mph /  12.9km/h 10.0mph /  16.1km/h 58% 0.00in /  0mm
14:03 78.5 °F /  25.8 °C 62.0 °F /  16.7 °C 30.04in /  1017.2hPa SSW 5.0mph /  8km/h 8.0mph /  12.9km/h 57% 0.00in /  0mm
14:08 78.0 °F /  25.6 °C 61.5 °F /  16.4 °C 30.04in /  1017.2hPa WSW 4.0mph /  6.4km/h 9.0mph /  14.5km/h 57% 0.00in /  0mm
14:13 78.0 °F /  25.6 °C 62.0 °F /  16.7 °C 30.04in /  1017.2hPa WSW 6.0mph /  9.7km/h 7.0mph /  11.3km/h 58% 0.00in /  0mm
14:19 78.3 °F /  25.7 °C 60.8 °F /  16 °C 30.03in /  1016.8hPa SW 5.0mph /  8km/h 7.0mph /  11.3km/h 55% 0.00in /  0mm
14:24 78.4 °F /  25.8 °C 60.9 °F /  16.1 °C 30.03in /  1016.8hPa SW 11.0mph /  17.7km/h 11.0mph /  17.7km/h 55% 0.00in /  0mm
14:29 78.5 °F /  25.8 °C 60.0 °F /  15.6 °C 30.03in /  1016.8hPa WSW 10.0mph /  16.1km/h 10.0mph /  16.1km/h 53% 0.00in /  0mm
14:34 79.1 °F /  26.2 °C 60.5 °F /  15.8 °C 30.03in /  1016.8hPa SW 3.0mph /  4.8km/h 9.0mph /  14.5km/h 53% 0.00in /  0mm
14:39 79.7 °F /  26.5 °C 60.0 °F /  15.6 °C 30.02in /  1016.5hPa West 4.0mph /  6.4km/h 6.0mph /  9.7km/h 51% 0.00in /  0mm
14:44 80.0 °F /  26.7 °C 58.6 °F /  14.8 °C 30.02in /  1016.5hPa SW 9.0mph /  14.5km/h 16.0mph /  25.7km/h 48% 0.00in /  0mm
14:49 80.5 °F /  26.9 °C 60.2 °F /  15.7 °C 30.01in /  1016.1hPa SW 8.0mph /  12.9km/h 12.0mph /  19.3km/h 50% 0.00in /  0mm
14:54 79.5 °F /  26.4 °C 59.2 °F /  15.1 °C 30.01in /  1016.1hPa SW 5.0mph /  8km/h 10.0mph /  16.1km/h 50% 0.00in /  0mm
14:59 79.3 °F /  26.3 °C 58.5 °F /  14.7 °C 30.01in /  1016.1hPa SW 13.0mph /  20.9km/h 15.0mph /  24.1km/h 49% 0.00in /  0mm
15:04 78.9 °F /  26.1 °C 58.1 °F /  14.5 °C 30.01in /  1016.1hPa WSW 4.0mph /  6.4km/h 12.0mph /  19.3km/h 49% 0.00in /  0mm
15:09 78.6 °F /  25.9 °C 59.5 °F /  15.3 °C 30.00in /  1015.8hPa WSW 5.0mph /  8km/h 8.0mph /  12.9km/h 52% 0.00in /  0mm
15:14 79.0 °F /  26.1 °C 58.2 °F /  14.6 °C 30.01in /  1016.1hPa SW 9.0mph /  14.5km/h 12.0mph /  19.3km/h 49% 0.00in /  0mm
15:19 79.7 °F /  26.5 °C 57.1 °F /  13.9 °C 30.00in /  1015.8hPa WSW 7.0mph /  11.3km/h 12.0mph /  19.3km/h 46% 0.00in /  0mm
15:24 80.2 °F /  26.8 °C 59.3 °F /  15.2 °C 29.99in /  1015.5hPa WSW 6.0mph /  9.7km/h 11.0mph /  17.7km/h 49% 0.00in /  0mm
15:29 80.3 °F /  26.8 °C 57.7 °F /  14.3 °C 29.99in /  1015.5hPa SSW 8.0mph /  12.9km/h 15.0mph /  24.1km/h 46% 0.00in /  0mm
15:34 80.1 °F /  26.7 °C 57.5 °F /  14.2 °C 29.99in /  1015.5hPa SW 11.0mph /  17.7km/h 14.0mph /  22.5km/h 46% 0.00in /  0mm
15:39 79.6 °F /  26.4 °C 58.2 °F /  14.6 °C 29.99in /  1015.5hPa SW 6.0mph /  9.7km/h 13.0mph /  20.9km/h 48% 0.00in /  0mm
15:44 79.9 °F /  26.6 °C 58.5 °F /  14.7 °C 29.99in /  1015.5hPa WSW 11.0mph /  17.7km/h 13.0mph /  20.9km/h 48% 0.00in /  0mm
15:49 80.3 °F /  26.8 °C 57.0 °F /  13.9 °C 29.99in /  1015.5hPa SSW 6.0mph /  9.7km/h 8.0mph /  12.9km/h 45% 0.00in /  0mm
15:54 80.6 °F /  27 °C 57.3 °F /  14.1 °C 29.99in /  1015.5hPa SW 13.0mph /  20.9km/h 17.0mph /  27.4km/h 45% 0.00in /  0mm
15:59 80.4 °F /  26.9 °C 57.8 °F /  14.3 °C 29.98in /  1015.1hPa WSW 5.0mph /  8km/h 12.0mph /  19.3km/h 46% 0.00in /  0mm
16:04 80.7 °F /  27.1 °C 56.8 °F /  13.8 °C 29.98in /  1015.1hPa SW 7.0mph /  11.3km/h 14.0mph /  22.5km/h 44% 0.00in /  0mm
16:09 80.8 °F /  27.1 °C 57.5 °F /  14.2 °C 29.98in /  1015.1hPa WSW 6.0mph /  9.7km/h 11.0mph /  17.7km/h 45% 0.00in /  0mm
16:14 80.6 °F /  27 °C 57.3 °F /  14.1 °C 29.98in /  1015.1hPa SSW 6.0mph /  9.7km/h 11.0mph /  17.7km/h 45% 0.00in /  0mm
16:19 81.2 °F /  27.3 °C 58.5 °F /  14.7 °C 29.97in /  1014.8hPa South 5.0mph /  8km/h 7.0mph /  11.3km/h 46% 0.00in /  0mm
16:24 81.1 °F /  27.3 °C 57.2 °F /  14 °C 29.97in /  1014.8hPa SW 10.0mph /  16.1km/h 10.0mph /  16.1km/h 44% 0.00in /  0mm
16:29 80.9 °F /  27.2 °C 55.7 °F /  13.2 °C 29.97in /  1014.8hPa SSW 10.0mph /  16.1km/h 15.0mph /  24.1km/h 42% 0.00in /  0mm
16:34 80.4 °F /  26.9 °C 56.5 °F /  13.6 °C 29.97in /  1014.8hPa West 7.0mph /  11.3km/h 13.0mph /  20.9km/h 44% 0.00in /  0mm
16:40 80.8 °F /  27.1 °C 57.5 °F /  14.2 °C 29.97in /  1014.8hPa South 6.0mph /  9.7km/h 7.0mph /  11.3km/h 45% 0.00in /  0mm
16:45 80.7 °F /  27.1 °C 56.2 °F /  13.4 °C 29.96in /  1014.4hPa West 11.0mph /  17.7km/h 16.0mph /  25.7km/h 43% 0.00in /  0mm
16:50 79.8 °F /  26.6 °C 54.7 °F /  12.6 °C 29.97in /  1014.8hPa West 3.0mph /  4.8km/h 10.0mph /  16.1km/h 42% 0.00in /  0mm
16:55 79.6 °F /  26.4 °C 57.0 °F /  13.9 °C 29.97in /  1014.8hPa SSW 3.0mph /  4.8km/h 10.0mph /  16.1km/h 46% 0.00in /  0mm
17:01 79.5 °F /  26.4 °C 59.2 °F /  15.1 °C 29.97in /  1014.8hPa SW 8.0mph /  12.9km/h 11.0mph /  17.7km/h 50% 0.00in /  0mm
17:06 79.2 °F /  26.2 °C 59.0 °F /  15 °C 29.96in /  1014.4hPa SW 6.0mph /  9.7km/h 10.0mph /  16.1km/h 50% 0.00in /  0mm
17:11 79.1 °F /  26.2 °C 58.3 °F /  14.6 °C 29.96in /  1014.4hPa SSW 9.0mph /  14.5km/h 10.0mph /  16.1km/h 49% 0.00in /  0mm
17:16 79.2 °F /  26.2 °C 58.4 °F /  14.7 °C 29.96in /  1014.4hPa SW 9.0mph /  14.5km/h 11.0mph /  17.7km/h 49% 0.00in /  0mm
17:21 79.3 °F /  26.3 °C 58.5 °F /  14.7 °C 29.96in /  1014.4hPa SSE 3.0mph /  4.8km/h 9.0mph /  14.5km/h 49% 0.00in /  0mm
17:26 79.5 °F /  26.4 °C 56.9 °F /  13.8 °C 29.96in /  1014.4hPa South 8.0mph /  12.9km/h 12.0mph /  19.3km/h 46% 0.00in /  0mm
17:31 79.3 °F /  26.3 °C 56.8 °F /  13.8 °C 29.96in /  1014.4hPa WSW 11.0mph /  17.7km/h 13.0mph /  20.9km/h 46% 0.00in /  0mm
17:36 79.2 °F /  26.2 °C 56.7 °F /  13.7 °C 29.96in /  1014.4hPa WSW 6.0mph /  9.7km/h 11.0mph /  17.7km/h 46% 0.00in /  0mm
17:41 79.1 °F /  26.2 °C 56.6 °F /  13.7 °C 29.95in /  1014.1hPa SW 6.0mph /  9.7km/h 9.0mph /  14.5km/h 46% 0.00in /  0mm
17:46 79.3 °F /  26.3 °C 56.8 °F /  13.8 °C 29.95in /  1014.1hPa WSW 5.0mph /  8km/h 12.0mph /  19.3km/h 46% 0.00in /  0mm
17:51 79.3 °F /  26.3 °C 56.1 °F /  13.4 °C 29.95in /  1014.1hPa WSW 5.0mph /  8km/h 8.0mph /  12.9km/h 45% 0.00in /  0mm
17:56 79.5 °F /  26.4 °C 56.9 °F /  13.8 °C 29.95in /  1014.1hPa South 3.0mph /  4.8km/h 9.0mph /  14.5km/h 46% 0.00in /  0mm
18:01 79.4 °F /  26.3 °C 55.6 °F /  13.1 °C 29.95in /  1014.1hPa SW 7.0mph /  11.3km/h 11.0mph /  17.7km/h 44% 0.00in /  0mm
18:06 79.4 °F /  26.3 °C 55.6 °F /  13.1 °C 29.95in /  1014.1hPa SSW 7.0mph /  11.3km/h 9.0mph /  14.5km/h 44% 0.00in /  0mm
18:11 79.5 °F /  26.4 °C 56.3 °F /  13.5 °C 29.95in /  1014.1hPa SW 10.0mph /  16.1km/h 10.0mph /  16.1km/h 45% 0.00in /  0mm
18:16 79.5 °F /  26.4 °C 55.7 °F /  13.2 °C 29.94in /  1013.8hPa SW 8.0mph /  12.9km/h 12.0mph /  19.3km/h 44% 0.00in /  0mm
18:21 79.5 °F /  26.4 °C 56.3 °F /  13.5 °C 29.94in /  1013.8hPa WSW 5.0mph /  8km/h 8.0mph /  12.9km/h 45% 0.00in /  0mm
18:26 79.6 °F /  26.4 °C 56.4 °F /  13.6 °C 29.94in /  1013.8hPa SSW 5.0mph /  8km/h 11.0mph /  17.7km/h 45% 0.00in /  0mm
18:31 79.4 °F /  26.3 °C 56.2 °F /  13.4 °C 29.94in /  1013.8hPa SSW 3.0mph /  4.8km/h 11.0mph /  17.7km/h 45% 0.00in /  0mm
18:36 79.4 °F /  26.3 °C 55.6 °F /  13.1 °C 29.94in /  1013.8hPa SSW 4.0mph /  6.4km/h 10.0mph /  16.1km/h 44% 0.00in /  0mm
18:41 79.4 °F /  26.3 °C 56.8 °F /  13.8 °C 29.94in /  1013.8hPa SSW 4.0mph /  6.4km/h 7.0mph /  11.3km/h 46% 0.00in /  0mm
18:47 79.3 °F /  26.3 °C 56.8 °F /  13.8 °C 29.94in /  1013.8hPa SSW 9.0mph /  14.5km/h 9.0mph /  14.5km/h 46% 0.00in /  0mm
18:52 79.1 °F /  26.2 °C 57.2 °F /  14 °C 29.94in /  1013.8hPa SW 5.0mph /  8km/h 7.0mph /  11.3km/h 47% 0.00in /  0mm
18:57 79.0 °F /  26.1 °C 55.9 °F /  13.3 °C 29.94in /  1013.8hPa West 6.0mph /  9.7km/h 9.0mph /  14.5km/h 45% 0.00in /  0mm
19:02 78.8 °F /  26 °C 56.3 °F /  13.5 °C 29.94in /  1013.8hPa SW 7.0mph /  11.3km/h 7.0mph /  11.3km/h 46% 0.00in /  0mm
19:07 78.6 °F /  25.9 °C 56.7 °F /  13.7 °C 29.94in /  1013.8hPa WSW 3.0mph /  4.8km/h 6.0mph /  9.7km/h 47% 0.00in /  0mm
19:12 78.5 °F /  25.8 °C 56.6 °F /  13.7 °C 29.94in /  1013.8hPa WSW 4.0mph /  6.4km/h 5.0mph /  8km/h 47% 0.00in /  0mm
19:17 78.3 °F /  25.7 °C 57.0 °F /  13.9 °C 29.94in /  1013.8hPa SW 2.0mph /  3.2km/h 4.0mph /  6.4km/h 48% 0.00in /  0mm
19:22 78.1 °F /  25.6 °C 56.8 °F /  13.8 °C 29.94in /  1013.8hPa SW 3.0mph /  4.8km/h 7.0mph /  11.3km/h 48% 0.00in /  0mm
19:27 77.8 °F /  25.4 °C 57.1 °F /  13.9 °C 29.94in /  1013.8hPa SSE 1.0mph /  1.6km/h 2.0mph /  3.2km/h 49% 0.00in /  0mm
19:32 77.7 °F /  25.4 °C 57.0 °F /  13.9 °C 29.94in /  1013.8hPa SW 2.0mph /  3.2km/h 3.0mph /  4.8km/h 49% 0.00in /  0mm
19:37 77.5 °F /  25.3 °C 57.4 °F /  14.1 °C 29.94in /  1013.8hPa SW 1.0mph /  1.6km/h 3.0mph /  4.8km/h 50% 0.00in /  0mm
19:42 77.1 °F /  25.1 °C 57.0 °F /  13.9 °C 29.94in /  1013.8hPa SSW 1.0mph /  1.6km/h 3.0mph /  4.8km/h 50% 0.00in /  0mm
19:47 76.6 °F /  24.8 °C 57.1 °F /  13.9 °C 29.94in /  1013.8hPa South 2.0mph /  3.2km/h 2.0mph /  3.2km/h 51% 0.00in /  0mm
19:52 75.9 °F /  24.4 °C 57.0 °F /  13.9 °C 29.94in /  1013.8hPa SSE 2.0mph /  3.2km/h 3.0mph /  4.8km/h 52% 0.00in /  0mm
19:57 75.3 °F /  24.1 °C 57.0 °F /  13.9 °C 29.94in /  1013.8hPa SSE 2.0mph /  3.2km/h 3.0mph /  4.8km/h 53% 0.00in /  0mm
20:02 74.8 °F /  23.8 °C 57.1 °F /  13.9 °C 29.95in /  1014.1hPa SSE 2.0mph /  3.2km/h 4.0mph /  6.4km/h 54% 0.00in /  0mm
20:07 74.4 °F /  23.6 °C 57.2 °F /  14 °C 29.95in /  1014.1hPa SSE 2.0mph /  3.2km/h 3.0mph /  4.8km/h 55% 0.00in /  0mm
20:12 74.1 °F /  23.4 °C 56.9 °F /  13.8 °C 29.95in /  1014.1hPa SSE 3.0mph /  4.8km/h 4.0mph /  6.4km/h 55% 0.00in /  0mm
20:17 73.8 °F /  23.2 °C 56.6 °F /  13.7 °C 29.95in /  1014.1hPa South 1.0mph /  1.6km/h 2.0mph /  3.2km/h 55% 0.00in /  0mm
20:22 73.4 °F /  23 °C 56.8 °F /  13.8 °C 29.95in /  1014.1hPa South 2.0mph /  3.2km/h 3.0mph /  4.8km/h 56% 0.00in /  0mm
20:27 72.9 °F /  22.7 °C 56.8 °F /  13.8 °C 29.95in /  1014.1hPa SW 1.0mph /  1.6km/h 1.0mph /  1.6km/h 57% 0.00in /  0mm
20:32 72.5 °F /  22.5 °C 56.9 °F /  13.8 °C 29.95in /  1014.1hPa SSE 2.0mph /  3.2km/h 3.0mph /  4.8km/h 58% 0.00in /  0mm
20:37 72.1 °F /  22.3 °C 57.0 °F /  13.9 °C 29.95in /  1014.1hPa SSE 2.0mph /  3.2km/h 2.0mph /  3.2km/h 59% 0.00in /  0mm
20:43 71.8 °F /  22.1 °C 56.7 °F /  13.7 °C 29.95in /  1014.1hPa Calm   2.0mph /  3.2km/h 59% 0.00in /  0mm
20:48 71.6 °F /  22 °C 56.5 °F /  13.6 °C 29.95in /  1014.1hPa SSE 1.0mph /  1.6km/h 2.0mph /  3.2km/h 59% 0.00in /  0mm
20:53 71.4 °F /  21.9 °C 56.3 °F /  13.5 °C 29.95in /  1014.1hPa SSE 2.0mph /  3.2km/h 2.0mph /  3.2km/h 59% 0.00in /  0mm
20:58 71.3 °F /  21.8 °C 56.2 °F /  13.4 °C 29.95in /  1014.1hPa SSE 2.0mph /  3.2km/h 3.0mph /  4.8km/h 59% 0.00in /  0mm
21:03 71.1 °F /  21.7 °C 56.5 °F /  13.6 °C 29.96in /  1014.4hPa SSE 2.0mph /  3.2km/h 2.0mph /  3.2km/h 60% 0.00in /  0mm
21:08 71.0 °F /  21.7 °C 56.0 °F /  13.3 °C 29.96in /  1014.4hPa SSE 1.0mph /  1.6km/h 2.0mph /  3.2km/h 59% 0.00in /  0mm
21:13 71.1 °F /  21.7 °C 56.1 °F /  13.4 °C 29.96in /  1014.4hPa SE 2.0mph /  3.2km/h 4.0mph /  6.4km/h 59% 0.00in /  0mm
21:18 71.1 °F /  21.7 °C 56.5 °F /  13.6 °C 29.96in /  1014.4hPa SSE 2.0mph /  3.2km/h 3.0mph /  4.8km/h 60% 0.00in /  0mm
21:23 70.8 °F /  21.6 °C 56.2 °F /  13.4 °C 29.96in /  1014.4hPa SSE 1.0mph /  1.6km/h 2.0mph /  3.2km/h 60% 0.00in /  0mm
21:28 70.6 °F /  21.4 °C 56.1 °F /  13.4 °C 29.96in /  1014.4hPa South 2.0mph /  3.2km/h 2.0mph /  3.2km/h 60% 0.00in /  0mm
21:33 70.5 °F /  21.4 °C 56.0 °F /  13.3 °C 29.96in /  1014.4hPa SSW 2.0mph /  3.2km/h 2.0mph /  3.2km/h 60% 0.00in /  0mm
21:38 70.3 °F /  21.3 °C 56.2 °F /  13.4 °C 29.97in /  1014.8hPa SSW 1.0mph /  1.6km/h 1.0mph /  1.6km/h 61% 0.00in /  0mm
21:43 70.1 °F /  21.2 °C 56.0 °F /  13.3 °C 29.97in /  1014.8hPa SSW 1.0mph /  1.6km/h 2.0mph /  3.2km/h 61% 0.00in /  0mm
21:48 69.9 °F /  21.1 °C 55.8 °F /  13.2 °C 29.97in /  1014.8hPa SSW 2.0mph /  3.2km/h 3.0mph /  4.8km/h 61% 0.00in /  0mm
21:53 69.9 °F /  21.1 °C 55.8 °F /  13.2 °C 29.97in /  1014.8hPa South 1.0mph /  1.6km/h 3.0mph /  4.8km/h 61% 0.00in /  0mm
21:58 69.7 °F /  20.9 °C 55.7 °F /  13.2 °C 29.97in /  1014.8hPa SE 2.0mph /  3.2km/h 3.0mph /  4.8km/h 61% 0.00in /  0mm
22:03 69.7 °F /  20.9 °C 56.1 °F /  13.4 °C 29.97in /  1014.8hPa South 2.0mph /  3.2km/h 2.0mph /  3.2km/h 62% 0.00in /  0mm
22:08 69.4 °F /  20.8 °C 55.8 °F /  13.2 °C 29.97in /  1014.8hPa South 1.0mph /  1.6km/h 2.0mph /  3.2km/h 62% 0.00in /  0mm
22:13 69.3 °F /  20.7 °C 55.7 °F /  13.2 °C 29.98in /  1015.1hPa SSE 2.0mph /  3.2km/h 2.0mph /  3.2km/h 62% 0.00in /  0mm
22:19 69.1 °F /  20.6 °C 56.0 °F /  13.3 °C 29.98in /  1015.1hPa SSW 1.0mph /  1.6km/h 2.0mph /  3.2km/h 63% 0.00in /  0mm
22:24 69.0 °F /  20.6 °C 55.9 °F /  13.3 °C 29.98in /  1015.1hPa SSW 1.0mph /  1.6km/h 3.0mph /  4.8km/h 63% 0.00in /  0mm
22:29 68.9 °F /  20.5 °C 55.8 °F /  13.2 °C 29.98in /  1015.1hPa Calm   2.0mph /  3.2km/h 63% 0.00in /  0mm
22:34 68.7 °F /  20.4 °C 56.0 °F /  13.3 °C 29.98in /  1015.1hPa Calm   1.0mph /  1.6km/h 64% 0.00in /  0mm
22:39 68.4 °F /  20.2 °C 55.8 °F /  13.2 °C 29.98in /  1015.1hPa South 1.0mph /  1.6km/h 1.0mph /  1.6km/h 64% 0.00in /  0mm
22:44 68.1 °F /  20.1 °C 55.9 °F /  13.3 °C 29.98in /  1015.1hPa SSW 1.0mph /  1.6km/h 2.0mph /  3.2km/h 65% 0.00in /  0mm
22:49 68.0 °F /  20 °C 55.8 °F /  13.2 °C 29.98in /  1015.1hPa SSE 1.0mph /  1.6km/h 2.0mph /  3.2km/h 65% 0.00in /  0mm
22:54 67.9 °F /  19.9 °C 55.7 °F /  13.2 °C 29.98in /  1015.1hPa SSE 2.0mph /  3.2km/h 2.0mph /  3.2km/h 65% 0.00in /  0mm
22:59 67.8 °F /  19.9 °C 55.6 °F /  13.1 °C 29.98in /  1015.1hPa SSE 2.0mph /  3.2km/h 2.0mph /  3.2km/h 65% 0.00in /  0mm
23:04 67.7 °F /  19.8 °C 55.5 °F /  13.1 °C 29.98in /  1015.1hPa SSE 1.0mph /  1.6km/h 2.0mph /  3.2km/h 65% 0.00in /  0mm
23:09 67.5 °F /  19.7 °C 55.8 °F /  13.2 °C 29.98in /  1015.1hPa South 1.0mph /  1.6km/h 2.0mph /  3.2km/h 66% 0.00in /  0mm
23:14 67.2 °F /  19.6 °C 55.5 °F /  13.1 °C 29.98in /  1015.1hPa SE 2.0mph /  3.2km/h 2.0mph /  3.2km/h 66% 0.00in /  0mm
23:19 67.1 °F /  19.5 °C 55.8 °F /  13.2 °C 29.98in /  1015.1hPa SSW 2.0mph /  3.2km/h 2.0mph /  3.2km/h 67% 0.00in /  0mm
23:24 66.9 °F /  19.4 °C 55.6 °F /  13.1 °C 29.98in /  1015.1hPa South 2.0mph /  3.2km/h 3.0mph /  4.8km/h 67% 0.00in /  0mm
23:29 66.8 °F /  19.3 °C 55.5 °F /  13.1 °C 29.97in /  1014.8hPa SW 1.0mph /  1.6km/h 4.0mph /  6.4km/h 67% 0.00in /  0mm
23:34 66.6 °F /  19.2 °C 55.7 °F /  13.2 °C 29.97in /  1014.8hPa SW 1.0mph /  1.6km/h 2.0mph /  3.2km/h 68% 0.00in /  0mm
23:39 66.4 °F /  19.1 °C 55.5 °F /  13.1 °C 29.98in /  1015.1hPa WSW 2.0mph /  3.2km/h 4.0mph /  6.4km/h 68% 0.00in /  0mm
23:44 66.4 °F /  19.1 °C 55.5 °F /  13.1 °C 29.98in /  1015.1hPa SW 2.0mph /  3.2km/h 3.0mph /  4.8km/h 68% 0.00in /  0mm
23:49 66.2 °F /  19 °C 55.7 °F /  13.2 °C 29.97in /  1014.8hPa SW 3.0mph /  4.8km/h 4.0mph /  6.4km/h 69% 0.00in /  0mm
23:54 65.8 °F /  18.8 °C 55.8 °F /  13.2 °C 29.97in /  1014.8hPa SW 1.0mph /  1.6km/h 5.0mph /  8km/h 70% 0.00in /  0mm
23:59 65.6 °F /  18.7 °C 55.6 °F /  13.1 °C 29.97in /  1014.8hPa SSW 2.0mph /  3.2km/h 4.0mph /  6.4km/h 70% 0.00in /  0mm
Compliments of Weather Underground